createdAt,value
2018-12-01T00:00:58.697Z,96.00
2018-12-01T00:03:27.239Z,95.80
2018-12-01T00:05:56.444Z,95.70
2018-12-01T00:08:25.541Z,95.80
2018-12-01T00:10:54.576Z,95.70
2018-12-01T00:13:23.667Z,95.60
2018-12-01T00:15:52.799Z,95.50
2018-12-01T00:18:21.302Z,95.40
2018-12-01T00:20:50.272Z,95.40
2018-12-01T00:23:19.423Z,95.80
2018-12-01T00:25:47.985Z,95.80
2018-12-01T00:28:17.551Z,95.60
2018-12-01T00:30:46.830Z,95.90
2018-12-01T00:33:16.016Z,95.80
2018-12-01T00:35:44.658Z,95.40
2018-12-01T00:38:14.450Z,95.40
2018-12-01T00:40:43.453Z,95.60
2018-12-01T00:43:12.009Z,95.60
2018-12-01T00:45:40.478Z,95.50
2018-12-01T00:48:09.611Z,95.70
2018-12-01T00:50:38.542Z,96.00
2018-12-01T00:53:07.055Z,96.10
2018-12-01T00:55:35.583Z,95.80
2018-12-01T00:58:04.820Z,95.60
2018-12-01T01:00:33.604Z,95.70
2018-12-01T01:03:02.275Z,95.90
2018-12-01T01:05:31.403Z,95.40
2018-12-01T01:08:02.325Z,95.30
2018-12-01T01:10:33.191Z,96.00
2018-12-01T01:13:02.507Z,95.90
2018-12-01T01:15:31.786Z,95.90
2018-12-01T01:18:00.913Z,95.30
2018-12-01T01:20:30.200Z,95.10
2018-12-01T01:23:00.051Z,95.20
2018-12-01T01:25:28.568Z,95.40
2018-12-01T01:27:57.703Z,95.30
2018-12-01T01:30:26.494Z,95.60
2018-12-01T01:33:06.077Z,96.10
2018-12-01T01:35:35.916Z,95.90
2018-12-01T01:38:05.169Z,95.70
2018-12-01T01:40:35.966Z,96.70
2018-12-01T01:43:05.965Z,96.20
2018-12-01T01:45:34.435Z,96.70
2018-12-01T01:48:05.068Z,96.30
2018-12-01T01:50:35.159Z,96.00
2018-12-01T01:53:03.646Z,96.60
2018-12-01T01:55:32.139Z,95.80
2018-12-01T01:58:01.321Z,95.60
2018-12-01T02:00:30.252Z,96.00
2018-12-01T02:02:58.793Z,96.80
2018-12-01T02:05:27.292Z,95.70
2018-12-01T02:07:56.093Z,95.50
2018-12-01T02:10:24.972Z,95.70
2018-12-01T02:12:54.628Z,95.90
2018-12-01T02:15:24.544Z,95.60
2018-12-01T02:17:54.489Z,95.60
2018-12-01T02:20:23.620Z,95.60
2018-12-01T02:22:52.123Z,95.80
2018-12-01T02:25:21.589Z,95.60
2018-12-01T02:27:50.734Z,95.90
2018-12-01T02:30:21.906Z,96.70
2018-12-01T02:32:50.415Z,96.50
2018-12-01T02:35:26.802Z,96.10
2018-12-01T02:37:55.946Z,96.60
2018-12-01T02:40:25.550Z,96.00
2018-12-01T02:42:54.936Z,97.30
2018-12-01T02:45:34.503Z,96.90
2018-12-01T02:48:03.628Z,97.10
2018-12-01T02:50:32.576Z,97.90
2018-12-01T02:53:01.459Z,96.70
2018-12-01T02:55:31.110Z,96.10
2018-12-01T02:57:59.649Z,95.60
2018-12-01T03:00:28.583Z,95.60
2018-12-01T03:02:57.742Z,95.50
2018-12-01T03:05:26.225Z,95.80
2018-12-01T03:07:56.218Z,97.20
2018-12-01T03:10:25.654Z,98.70
2018-12-01T03:12:54.978Z,99.00
2018-12-01T03:15:24.054Z,99.10
2018-12-01T03:17:53.270Z,99.00
2018-12-01T03:20:22.071Z,99.50
2018-12-01T03:22:50.556Z,99.20
2018-12-01T03:25:23.011Z,98.50
2018-12-01T03:27:53.875Z,98.50
2018-12-01T03:30:24.092Z,97.00
2018-12-01T03:32:54.539Z,96.70
2018-12-01T03:35:24.676Z,97.40
2018-12-01T03:37:53.858Z,98.60
2018-12-01T03:40:23.210Z,98.90
2018-12-01T03:42:52.586Z,99.00
2018-12-01T03:45:24.112Z,99.00
2018-12-01T03:47:53.853Z,98.90
2018-12-01T03:50:24.108Z,98.70
2018-12-01T03:52:57.346Z,98.50
2018-12-01T03:55:32.241Z,98.90
2018-12-01T03:58:01.600Z,98.80
2018-12-01T04:00:32.282Z,98.80
2018-12-01T04:03:01.513Z,98.50
2018-12-01T04:05:31.370Z,98.80
2018-12-01T04:08:00.821Z,98.80
2018-12-01T04:10:29.822Z,98.70
2018-12-01T04:12:58.955Z,98.80
2018-12-01T04:15:28.109Z,98.90
2018-12-01T04:17:57.694Z,99.10
2018-12-01T04:20:26.667Z,99.10
2018-12-01T04:22:55.144Z,99.20
2018-12-01T04:25:23.700Z,99.10
2018-12-01T04:27:53.470Z,99.00
2018-12-01T04:30:23.308Z,99.20
2018-12-01T04:32:52.363Z,99.00
2018-12-01T04:35:23.892Z,99.20
2018-12-01T04:37:54.033Z,99.20
2018-12-01T04:40:23.500Z,99.10
2018-12-01T04:42:53.758Z,99.20
2018-12-01T04:45:22.216Z,99.00
2018-12-01T04:47:52.836Z,99.00
2018-12-01T04:50:22.547Z,98.60
2018-12-01T04:52:51.952Z,98.90
2018-12-01T04:55:21.919Z,98.30
2018-12-01T04:57:50.963Z,98.90
2018-12-01T05:00:21.567Z,99.00
2018-12-01T05:02:50.080Z,98.90
2018-12-01T05:05:20.495Z,97.90
2018-12-01T05:07:53.418Z,97.50
2018-12-01T05:10:22.817Z,97.50
2018-12-01T05:12:52.330Z,96.40
2018-12-01T05:15:21.503Z,96.90
2018-12-01T05:17:51.041Z,96.10
2018-12-01T05:20:23.038Z,96.80
2018-12-01T05:22:52.543Z,97.70
2018-12-01T05:25:22.212Z,98.10
2018-12-01T05:27:51.356Z,98.90
2018-12-01T05:30:20.281Z,99.00
2018-12-01T05:32:49.811Z,99.30
2018-12-01T05:35:22.954Z,98.90
2018-12-01T05:37:52.142Z,98.70
2018-12-01T05:40:21.864Z,98.50
2018-12-01T05:42:50.363Z,98.50
2018-12-01T05:45:21.331Z,97.10
2018-12-01T05:47:52.230Z,96.90
2018-12-01T05:50:29.739Z,97.70
2018-12-01T05:52:58.235Z,96.80
2018-12-01T05:55:26.779Z,97.30
2018-12-01T05:57:55.985Z,98.60
2018-12-01T06:00:25.971Z,99.20
2018-12-01T06:02:54.607Z,99.30
2018-12-01T06:05:24.465Z,99.10
2018-12-01T06:07:54.225Z,99.20
2018-12-01T06:10:24.024Z,98.10
2018-12-01T06:12:54.056Z,97.20
2018-12-01T06:15:22.780Z,96.90
2018-12-01T06:17:52.525Z,96.60
2018-12-01T06:20:23.535Z,96.70
2018-12-01T06:22:52.111Z,98.80
2018-12-01T06:25:22.250Z,99.30
2018-12-01T06:27:51.384Z,99.40
2018-12-01T06:30:21.111Z,99.50
2018-12-01T06:32:50.925Z,99.60
2018-12-01T06:35:19.425Z,99.60
2018-12-01T06:37:49.490Z,99.60
2018-12-01T06:40:20.397Z,99.30
2018-12-01T06:42:49.921Z,98.80
2018-12-01T06:45:19.370Z,99.20
2018-12-01T06:47:48.635Z,99.40
2018-12-01T06:50:20.989Z,99.40
2018-12-01T06:52:50.298Z,99.40
2018-12-01T06:55:18.778Z,98.20
2018-12-01T06:57:48.258Z,97.70
2018-12-01T07:00:18.348Z,97.90
2018-12-01T07:02:47.539Z,96.50
2018-12-01T07:05:20.013Z,96.80
2018-12-01T07:07:54.623Z,96.40
2018-12-01T07:10:23.931Z,96.60
2018-12-01T07:12:57.066Z,96.70
2018-12-01T07:15:32.489Z,97.80
2018-12-01T07:18:01.683Z,98.50
2018-12-01T07:20:30.608Z,99.90
2018-12-01T07:22:59.733Z,99.00
2018-12-01T07:25:28.361Z,98.10
2018-12-01T07:28:02.421Z,98.10
2018-12-01T07:30:33.706Z,98.10
2018-12-01T07:33:09.613Z,98.70
2018-12-01T07:35:39.060Z,98.50
2018-12-01T07:38:08.782Z,98.00
2018-12-01T07:40:37.721Z,98.40
2018-12-01T07:43:06.430Z,99.60
2018-12-01T07:45:35.436Z,99.90
2018-12-01T07:48:04.448Z,99.20
2018-12-01T07:50:33.321Z,99.60
2018-12-01T07:53:01.815Z,99.20
2018-12-01T07:55:31.285Z,99.90
2018-12-01T07:58:01.381Z,99.90
2018-12-01T08:00:30.285Z,99.50
2018-12-01T08:03:01.593Z,97.90
2018-12-01T08:05:30.690Z,97.40
2018-12-01T08:08:00.332Z,97.30
2018-12-01T08:10:30.528Z,97.80
2018-12-01T08:12:59.066Z,96.70
2018-12-01T08:15:28.135Z,96.60
2018-12-01T08:17:57.040Z,98.40
2018-12-01T08:20:26.049Z,98.00
2018-12-01T08:22:54.647Z,97.50
2018-12-01T08:25:23.192Z,98.10
2018-12-01T08:27:58.658Z,97.80
2018-12-01T08:30:30.685Z,96.70
2018-12-01T08:33:01.772Z,96.50
2018-12-01T08:35:31.964Z,96.50
2018-12-01T08:38:01.213Z,97.10
2018-12-01T08:40:31.181Z,96.80
2018-12-01T08:42:59.774Z,96.80
2018-12-01T08:45:28.455Z,97.30
2018-12-01T08:48:00.441Z,98.20
2018-12-01T08:50:30.230Z,96.90
2018-12-01T08:53:32.124Z,97.30
2018-12-01T08:56:01.837Z,97.30
2018-12-01T08:58:30.451Z,98.40
2018-12-01T09:00:59.405Z,97.70
2018-12-01T09:03:27.973Z,97.20
2018-12-01T09:05:57.209Z,96.80
2018-12-01T09:08:27.072Z,96.90
2018-12-01T09:10:56.213Z,96.50
2018-12-01T09:13:25.927Z,97.30
2018-12-01T09:15:54.999Z,97.60
2018-12-01T09:18:23.573Z,98.00
2018-12-01T09:20:54.341Z,97.80
2018-12-01T09:23:22.907Z,98.20
2018-12-01T09:25:51.817Z,98.10
2018-12-01T09:28:20.962Z,97.90
2018-12-01T09:31:14.320Z,97.90
2018-12-01T09:33:51.629Z,97.70
2018-12-01T09:36:20.451Z,97.80
2018-12-01T09:38:49.918Z,98.10
2018-12-01T09:41:18.911Z,98.00
2018-12-01T09:43:51.376Z,98.40
2018-12-01T09:46:20.522Z,98.80
2018-12-01T09:48:49.067Z,98.50
2018-12-01T09:51:18.108Z,98.10
2018-12-01T09:53:47.256Z,98.50
2018-12-01T09:56:16.530Z,98.30
2018-12-01T09:58:46.105Z,98.70
2018-12-01T10:01:15.262Z,98.30
2018-12-01T10:03:43.932Z,98.50
2018-12-01T10:06:13.075Z,98.30
2018-12-01T10:08:41.595Z,98.20
2018-12-01T10:11:10.694Z,99.20
2018-12-01T10:13:39.229Z,98.70
2018-12-01T10:16:09.499Z,99.00
2018-12-01T10:19:03.477Z,99.80
2018-12-01T10:21:37.241Z,99.90
2018-12-01T10:24:18.207Z,99.20
2018-12-01T10:27:04.076Z,99.60
2018-12-01T10:29:37.867Z,99.40
2018-12-01T10:32:31.494Z,98.90
2018-12-01T10:35:21.592Z,99.70
2018-12-01T10:38:06.656Z,98.10
2018-12-01T10:40:44.153Z,99.90
2018-12-01T10:43:12.831Z,99.90
2018-12-01T10:45:42.389Z,99.80
2018-12-01T10:48:11.354Z,99.50
2018-12-01T10:50:40.472Z,98.90
2018-12-01T10:53:09.108Z,98.60
2018-12-01T10:55:39.387Z,98.60
2018-12-01T10:58:22.656Z,98.20
2018-12-01T11:00:59.260Z,98.10
2018-12-01T11:03:36.524Z,98.30
2018-12-01T11:06:10.169Z,97.80
2018-12-01T11:08:40.653Z,96.60
2018-12-01T11:11:09.580Z,97.00
2018-12-01T11:13:38.638Z,97.30
2018-12-01T11:16:08.186Z,97.40
2018-12-01T11:18:36.736Z,97.60
2018-12-01T11:21:06.188Z,97.30
2018-12-01T11:23:47.740Z,97.40
2018-12-01T11:26:17.627Z,97.20
2018-12-01T11:28:46.268Z,97.30
2018-12-01T11:31:15.774Z,97.20
2018-12-01T11:33:44.303Z,97.40
2018-12-01T11:36:14.885Z,97.50
2018-12-01T11:39:06.123Z,97.00
2018-12-01T11:41:36.730Z,97.10
2018-12-01T11:44:07.142Z,96.80
2018-12-01T11:46:35.821Z,96.60
2018-12-01T11:49:09.532Z,96.40
2018-12-01T11:51:41.744Z,96.50
2018-12-01T11:54:35.222Z,96.60
2018-12-01T11:57:22.320Z,96.50
2018-12-01T11:59:53.549Z,96.30
2018-12-01T12:02:22.121Z,96.40
2018-12-01T12:04:51.414Z,96.00
2018-12-01T12:07:46.117Z,95.90
2018-12-01T12:10:15.741Z,95.80
2018-12-01T12:12:44.263Z,95.10
2018-12-01T12:15:14.181Z,95.30
2018-12-01T12:17:45.800Z,95.40
2018-12-01T12:20:14.743Z,95.40
2018-12-01T12:22:44.505Z,94.60
2018-12-01T12:25:13.560Z,94.50
2018-12-01T12:27:43.311Z,93.70
2018-12-01T12:30:15.433Z,94.00
2018-12-01T12:32:44.501Z,93.00
2018-12-01T12:35:17.380Z,93.40
2018-12-01T12:37:46.624Z,93.50
2018-12-01T12:40:22.078Z,93.10
2018-12-01T12:43:02.811Z,92.80
2018-12-01T12:45:31.883Z,93.10
2018-12-01T12:48:00.728Z,93.20
2018-12-01T12:50:37.595Z,93.20
2018-12-01T12:53:07.362Z,93.40
2018-12-01T12:55:35.902Z,93.40
2018-12-01T12:58:06.580Z,93.50
2018-12-01T13:00:36.673Z,93.00
2018-12-01T13:03:07.812Z,93.20
2018-12-01T13:05:38.548Z,93.40
2018-12-01T13:08:08.487Z,93.30
2018-12-01T13:10:37.493Z,93.30
2018-12-01T13:13:06.950Z,93.20
2018-12-01T13:15:37.908Z,93.20
2018-12-01T13:18:12.762Z,93.20
2018-12-01T13:20:42.772Z,93.30
2018-12-01T13:23:11.362Z,93.10
2018-12-01T13:25:40.764Z,93.10
2018-12-01T13:28:25.425Z,92.90
2018-12-01T13:31:01.718Z,92.80
2018-12-01T13:33:31.216Z,92.60
2018-12-01T13:36:00.118Z,92.10
2018-12-01T13:38:28.730Z,92.50
2018-12-01T13:40:57.768Z,92.80
2018-12-01T13:43:27.136Z,92.90
2018-12-01T13:45:57.206Z,93.10
2018-12-01T13:48:46.667Z,93.00
2018-12-01T13:51:17.048Z,92.90
2018-12-01T13:53:45.511Z,93.00
2018-12-01T13:56:20.767Z,93.00
2018-12-01T13:58:46.828Z,92.80
2018-12-01T14:01:18.810Z,92.80
2018-12-01T14:03:49.643Z,92.90
2018-12-01T14:06:20.466Z,93.20
2018-12-01T14:08:50.928Z,93.30
2018-12-01T14:11:20.638Z,93.60
2018-12-01T14:13:50.602Z,93.60
2018-12-01T14:16:19.802Z,93.80
2018-12-01T14:18:51.522Z,93.90
2018-12-01T14:21:37.044Z,94.10
2018-12-01T14:24:06.246Z,94.30
2018-12-01T14:26:37.242Z,94.70
2018-12-01T14:29:07.088Z,94.90
2018-12-01T14:34:09.459Z,95.40
2018-12-01T14:36:40.288Z,95.60
2018-12-01T14:39:09.989Z,95.70
2018-12-01T14:41:38.599Z,95.70
2018-12-01T14:44:07.113Z,95.90
2018-12-01T14:46:36.410Z,96.10
2018-12-01T14:49:05.951Z,96.30
2018-12-01T14:51:34.548Z,96.40
2018-12-01T14:54:03.116Z,96.60
2018-12-01T14:56:33.167Z,96.70
2018-12-01T14:59:02.603Z,96.70
2018-12-01T15:01:35.050Z,96.80
2018-12-01T15:04:08.047Z,96.90
2018-12-01T15:06:37.277Z,97.00
2018-12-01T15:09:10.105Z,96.90
2018-12-01T15:11:38.837Z,97.00
2018-12-01T15:14:08.098Z,97.00
2018-12-01T15:17:18.665Z,97.10
2018-12-01T15:20:01.862Z,97.10
2018-12-01T15:22:31.342Z,97.20
2018-12-01T15:25:12.622Z,97.30
2018-12-01T15:27:46.119Z,97.30
2018-12-01T15:30:18.276Z,97.50
2018-12-01T15:32:52.436Z,97.80
2018-12-01T15:35:21.677Z,97.60
2018-12-01T15:37:51.933Z,97.60
2018-12-01T15:40:21.852Z,97.70
2018-12-01T15:42:51.462Z,97.70
2018-12-01T15:45:25.299Z,97.70
2018-12-01T15:47:55.960Z,97.60
2018-12-01T15:50:38.597Z,97.70
2018-12-01T15:53:10.985Z,97.80
2018-12-01T15:55:39.958Z,97.80
2018-12-01T15:58:09.189Z,97.80
2018-12-01T16:00:39.602Z,97.80
2018-12-01T16:03:08.202Z,97.80
2018-12-01T16:05:37.780Z,97.90
2018-12-01T16:08:09.916Z,97.90
2018-12-01T16:10:41.366Z,98.00
2018-12-01T16:13:28.460Z,98.00
2018-12-01T16:16:26.882Z,98.10
2018-12-01T16:18:57.901Z,98.10
2018-12-01T16:21:27.194Z,98.10
2018-12-01T16:23:58.745Z,98.00
2018-12-01T16:26:28.966Z,98.10
2018-12-01T16:28:59.712Z,98.10
2018-12-01T16:31:30.105Z,98.10
2018-12-01T16:33:59.337Z,98.10
2018-12-01T16:36:28.494Z,98.00
2018-12-01T16:38:57.460Z,97.80
2018-12-01T16:41:30.007Z,97.60
2018-12-01T16:43:58.630Z,97.50
2018-12-01T16:46:27.413Z,97.60
2018-12-01T16:48:57.447Z,97.50
2018-12-01T16:51:26.760Z,97.50
2018-12-01T16:53:55.668Z,97.60
2018-12-01T16:56:24.879Z,97.90
2018-12-01T16:58:53.419Z,97.70
2018-12-01T17:01:24.873Z,97.80
2018-12-01T17:03:53.474Z,97.80
2018-12-01T17:06:24.185Z,97.80
2018-12-01T17:08:55.013Z,97.80
2018-12-01T17:11:29.755Z,97.80
2018-12-01T17:13:58.862Z,97.80
2018-12-01T17:16:31.417Z,97.70
2018-12-01T17:19:07.901Z,97.80
2018-12-01T17:21:46.015Z,97.80
2018-12-01T17:24:15.335Z,97.80
2018-12-01T17:26:45.207Z,97.70
2018-12-01T17:29:14.092Z,97.70
2018-12-01T17:31:42.628Z,97.80
2018-12-01T17:34:11.310Z,97.80
2018-12-01T17:36:40.498Z,97.80
2018-12-01T17:39:10.762Z,97.90
2018-12-01T17:41:39.338Z,97.90
2018-12-01T17:44:10.374Z,98.10
2018-12-01T17:46:39.573Z,98.10
2018-12-01T17:49:08.647Z,98.10
2018-12-01T17:51:37.237Z,98.10
2018-12-01T17:54:20.530Z,98.10
2018-12-01T17:56:50.504Z,98.10
2018-12-01T17:59:19.545Z,98.20
2018-12-01T18:01:48.178Z,98.10
2018-12-01T18:04:16.672Z,98.10
2018-12-01T18:06:45.586Z,98.10
2018-12-01T18:09:15.688Z,97.90
2018-12-01T18:11:44.426Z,98.20
2018-12-01T18:14:13.917Z,98.20
2018-12-01T18:16:50.623Z,98.10
2018-12-01T18:19:20.398Z,98.10
2018-12-01T18:21:48.896Z,98.20
2018-12-01T18:24:18.038Z,98.20
2018-12-01T18:26:48.407Z,98.20
2018-12-01T18:29:17.492Z,98.20
2018-12-01T18:31:46.569Z,98.30
2018-12-01T18:34:16.185Z,98.40
2018-12-01T18:36:46.021Z,98.40
2018-12-01T18:39:18.602Z,98.50
2018-12-01T18:41:49.663Z,98.50
2018-12-01T18:44:18.889Z,98.50
2018-12-01T18:46:48.095Z,98.40
2018-12-01T18:49:18.176Z,98.50
2018-12-01T18:51:47.384Z,98.60
2018-12-01T18:54:16.765Z,98.60
2018-12-01T18:56:45.771Z,98.60
2018-12-01T18:59:15.403Z,98.60
2018-12-01T19:01:44.018Z,98.50
2018-12-01T19:04:13.570Z,98.60
2018-12-01T19:06:42.781Z,98.60
2018-12-01T19:09:12.641Z,98.60
2018-12-01T19:11:42.818Z,98.60
2018-12-01T19:14:11.655Z,98.60
2018-12-01T19:16:41.230Z,98.60
2018-12-01T19:19:11.138Z,98.70
2018-12-01T19:21:40.929Z,98.70
2018-12-01T19:24:12.415Z,98.60
2018-12-01T19:26:41.539Z,98.60
2018-12-01T19:29:10.661Z,98.70
2018-12-01T19:31:39.649Z,98.70
2018-12-01T19:34:08.593Z,98.70
2018-12-01T19:36:37.743Z,98.70
2018-12-01T19:39:07.944Z,98.70
2018-12-01T19:41:36.613Z,98.70
2018-12-01T19:44:05.253Z,98.70
2018-12-01T19:46:34.830Z,98.70
2018-12-01T19:49:03.909Z,98.70
2018-12-01T19:51:33.414Z,98.70
2018-12-01T19:54:04.017Z,98.70
2018-12-01T19:56:33.204Z,98.70
2018-12-01T19:59:02.479Z,98.70
2018-12-01T20:01:31.042Z,98.80
2018-12-01T20:04:00.021Z,98.80
2018-12-01T20:06:30.218Z,98.80
2018-12-01T20:08:59.129Z,98.90
2018-12-01T20:11:28.162Z,98.90
2018-12-01T20:13:56.823Z,98.90
2018-12-01T20:16:38.600Z,98.80
2018-12-01T20:19:08.134Z,98.80
2018-12-01T20:21:36.729Z,98.80
2018-12-01T20:24:06.565Z,98.70
2018-12-01T20:26:36.473Z,98.70
2018-12-01T20:29:07.732Z,98.80
2018-12-01T20:31:36.297Z,98.70
2018-12-01T20:34:05.083Z,98.70
2018-12-01T20:36:42.275Z,98.80
2018-12-01T20:39:42.809Z,98.80
2018-12-01T20:42:11.912Z,98.80
2018-12-01T20:44:40.416Z,98.90
2018-12-01T20:47:11.640Z,99.00
2018-12-01T20:49:41.998Z,99.00
2018-12-01T20:52:10.604Z,99.00
2018-12-01T20:54:43.236Z,99.10
2018-12-01T20:57:31.636Z,99.10
2018-12-01T21:00:01.197Z,99.00
2018-12-01T21:02:29.800Z,99.10
2018-12-01T21:04:59.310Z,99.00
2018-12-01T21:07:28.442Z,99.00
2018-12-01T21:09:57.266Z,99.00
2018-12-01T21:12:25.934Z,99.00
2018-12-01T21:14:54.465Z,99.00
2018-12-01T21:17:23.615Z,99.00
2018-12-01T21:19:52.862Z,99.10
2018-12-01T21:22:22.050Z,99.10
2018-12-01T21:24:51.255Z,99.10
2018-12-01T21:27:24.418Z,99.10
2018-12-01T21:29:53.478Z,99.10
2018-12-01T21:32:22.304Z,99.10
2018-12-01T21:34:50.913Z,99.50
2018-12-01T21:37:20.883Z,99.20
2018-12-01T21:39:49.911Z,99.20
2018-12-01T21:42:19.086Z,99.20
2018-12-01T21:44:47.920Z,99.20
2018-12-01T21:47:17.785Z,99.20
2018-12-01T21:49:47.406Z,99.20
2018-12-01T21:52:15.891Z,99.10
2018-12-01T21:54:45.070Z,99.20
2018-12-01T21:57:41.160Z,99.10
2018-12-01T22:01:00.093Z,99.10
2018-12-01T22:03:31.082Z,99.00
2018-12-01T22:06:06.771Z,99.00
2018-12-01T22:08:37.238Z,99.00
2018-12-01T22:11:06.897Z,99.00
2018-12-01T22:13:35.428Z,98.90
2018-12-01T22:16:06.719Z,98.90
2018-12-01T22:18:36.812Z,98.80
2018-12-01T22:21:11.211Z,98.80
2018-12-01T22:23:40.252Z,98.80
2018-12-01T22:26:10.988Z,98.90
2018-12-01T22:28:39.484Z,98.90
2018-12-01T22:31:08.413Z,99.00
2018-12-01T22:33:36.930Z,99.00
2018-12-01T22:36:06.099Z,99.40
2018-12-01T22:38:35.607Z,99.00
2018-12-01T22:41:04.770Z,99.00
2018-12-01T22:43:33.901Z,99.00
2018-12-01T22:46:02.945Z,99.00
2018-12-01T22:48:32.077Z,99.00
2018-12-01T22:51:02.072Z,99.00
2018-12-01T22:53:30.627Z,99.00
2018-12-01T22:55:59.159Z,99.00
2018-12-01T22:58:27.720Z,98.90
2018-12-01T23:00:58.120Z,99.00
2018-12-01T23:03:28.034Z,98.90
2018-12-01T23:05:56.872Z,98.90
2018-12-01T23:08:26.820Z,98.90
2018-12-01T23:10:55.726Z,98.90
2018-12-01T23:13:24.446Z,99.00
2018-12-01T23:15:54.710Z,98.80
2018-12-01T23:18:26.371Z,98.80
2018-12-01T23:20:55.822Z,98.80
2018-12-01T23:23:24.645Z,98.70
2018-12-01T23:25:54.781Z,98.70
2018-12-01T23:28:23.317Z,98.70
2018-12-01T23:30:55.074Z,98.70
2018-12-01T23:33:24.885Z,98.70
2018-12-01T23:35:53.810Z,98.70
2018-12-01T23:38:22.444Z,98.70
2018-12-01T23:40:52.079Z,98.70
2018-12-01T23:43:20.687Z,98.60
2018-12-01T23:45:49.254Z,98.60
2018-12-01T23:48:18.729Z,98.60
2018-12-01T23:50:50.834Z,98.50
2018-12-01T23:53:20.500Z,98.50
2018-12-01T23:55:49.054Z,98.50
2018-12-01T23:58:18.315Z,98.50
